sensor_id;sensor_type;location;lat;lon;timestamp;P1;durP1;ratioP1;P2;durP2;ratioP2
42294;SDS011;27947;47.556;18.718;2023-06-22T00:02:18;10.82;;;3.90;;
42294;SDS011;27947;47.556;18.718;2023-06-22T00:04:44;17.95;;;5.07;;
42294;SDS011;27947;47.556;18.718;2023-06-22T00:07:09;12.55;;;5.00;;
42294;SDS011;27947;47.556;18.718;2023-06-22T00:09:35;10.88;;;4.53;;
42294;SDS011;27947;47.556;18.718;2023-06-22T00:12:01;14.30;;;4.82;;
42294;SDS011;27947;47.556;18.718;2023-06-22T00:14:26;16.13;;;4.50;;
42294;SDS011;27947;47.556;18.718;2023-06-22T00:16:52;13.43;;;4.82;;
42294;SDS011;27947;47.556;18.718;2023-06-22T00:19:22;10.80;;;3.85;;
42294;SDS011;27947;47.556;18.718;2023-06-22T00:21:48;13.07;;;4.53;;
42294;SDS011;27947;47.556;18.718;2023-06-22T00:24:20;12.10;;;3.80;;
42294;SDS011;27947;47.556;18.718;2023-06-22T00:26:47;10.88;;;4.25;;
42294;SDS011;27947;47.556;18.718;2023-06-22T00:29:12;10.23;;;4.32;;
42294;SDS011;27947;47.556;18.718;2023-06-22T00:31:38;11.48;;;4.07;;
42294;SDS011;27947;47.556;18.718;2023-06-22T00:34:03;19.08;;;4.45;;
42294;SDS011;27947;47.556;18.718;2023-06-22T00:36:29;15.38;;;4.70;;
42294;SDS011;27947;47.556;18.718;2023-06-22T00:38:55;13.00;;;4.40;;
42294;SDS011;27947;47.556;18.718;2023-06-22T00:41:22;12.05;;;4.00;;
42294;SDS011;27947;47.556;18.718;2023-06-22T00:43:48;14.82;;;4.53;;
42294;SDS011;27947;47.556;18.718;2023-06-22T00:46:13;9.75;;;4.15;;
42294;SDS011;27947;47.556;18.718;2023-06-22T00:48:38;8.52;;;3.80;;
42294;SDS011;27947;47.556;18.718;2023-06-22T00:51:05;11.13;;;4.25;;
42294;SDS011;27947;47.556;18.718;2023-06-22T00:53:30;9.38;;;4.13;;
42294;SDS011;27947;47.556;18.718;2023-06-22T00:55:59;9.95;;;4.22;;
42294;SDS011;27947;47.556;18.718;2023-06-22T00:58:25;8.15;;;3.90;;
42294;SDS011;27947;47.556;18.718;2023-06-22T01:00:51;10.50;;;3.60;;
42294;SDS011;27947;47.556;18.718;2023-06-22T01:03:16;13.23;;;4.35;;
42294;SDS011;27947;47.556;18.718;2023-06-22T01:05:42;11.27;;;4.00;;
42294;SDS011;27947;47.556;18.718;2023-06-22T01:13:26;11.48;;;4.10;;
42294;SDS011;27947;47.556;18.718;2023-06-22T01:15:53;8.13;;;4.13;;
42294;SDS011;27947;47.556;18.718;2023-06-22T01:18:21;10.27;;;3.92;;
42294;SDS011;27947;47.556;18.718;2023-06-22T01:20:52;10.10;;;3.60;;
42294;SDS011;27947;47.556;18.718;2023-06-22T01:23:26;9.48;;;3.85;;
42294;SDS011;27947;47.556;18.718;2023-06-22T01:26:02;11.82;;;4.07;;
42294;SDS011;27947;47.556;18.718;2023-06-22T01:29:03;12.75;;;4.40;;
42294;SDS011;27947;47.556;18.718;2023-06-22T01:31:25;11.23;;;4.05;;
42294;SDS011;27947;47.556;18.718;2023-06-22T01:33:52;13.48;;;4.25;;
42294;SDS011;27947;47.556;18.718;2023-06-22T01:36:19;11.90;;;4.20;;
42294;SDS011;27947;47.556;18.718;2023-06-22T01:38:45;12.85;;;4.78;;
42294;SDS011;27947;47.556;18.718;2023-06-22T01:41:11;12.82;;;4.45;;
42294;SDS011;27947;47.556;18.718;2023-06-22T01:43:37;9.95;;;3.88;;
42294;SDS011;27947;47.556;18.718;2023-06-22T01:46:03;9.73;;;3.60;;
42294;SDS011;27947;47.556;18.718;2023-06-22T01:48:29;9.10;;;3.67;;
42294;SDS011;27947;47.556;18.718;2023-06-22T01:50:55;10.27;;;3.85;;
42294;SDS011;27947;47.556;18.718;2023-06-22T01:53:24;12.60;;;4.20;;
42294;SDS011;27947;47.556;18.718;2023-06-22T01:55:51;8.00;;;4.30;;
42294;SDS011;27947;47.556;18.718;2023-06-22T01:58:16;11.23;;;4.45;;
42294;SDS011;27947;47.556;18.718;2023-06-22T02:00:44;8.30;;;4.43;;
42294;SDS011;27947;47.556;18.718;2023-06-22T02:03:11;9.27;;;4.57;;
42294;SDS011;27947;47.556;18.718;2023-06-22T02:05:39;9.10;;;4.10;;
42294;SDS011;27947;47.556;18.718;2023-06-22T02:08:17;15.52;;;4.40;;
42294;SDS011;27947;47.556;18.718;2023-06-22T02:10:44;8.90;;;4.65;;
42294;SDS011;27947;47.556;18.718;2023-06-22T02:13:10;11.05;;;5.18;;
42294;SDS011;27947;47.556;18.718;2023-06-22T02:15:36;9.93;;;4.50;;
42294;SDS011;27947;47.556;18.718;2023-06-22T02:18:02;12.45;;;5.30;;
42294;SDS011;27947;47.556;18.718;2023-06-22T02:20:27;9.57;;;4.07;;
42294;SDS011;27947;47.556;18.718;2023-06-22T02:22:52;10.55;;;4.57;;
42294;SDS011;27947;47.556;18.718;2023-06-22T02:25:18;11.50;;;4.38;;
42294;SDS011;27947;47.556;18.718;2023-06-22T02:27:45;8.40;;;3.50;;
42294;SDS011;27947;47.556;18.718;2023-06-22T02:30:10;12.95;;;4.13;;
42294;SDS011;27947;47.556;18.718;2023-06-22T02:33:01;11.90;;;4.13;;
42294;SDS011;27947;47.556;18.718;2023-06-22T02:35:27;13.68;;;4.15;;
42294;SDS011;27947;47.556;18.718;2023-06-22T02:37:56;8.07;;;4.15;;
42294;SDS011;27947;47.556;18.718;2023-06-22T02:40:24;9.35;;;4.22;;
42294;SDS011;27947;47.556;18.718;2023-06-22T02:42:49;11.90;;;4.15;;
42294;SDS011;27947;47.556;18.718;2023-06-22T02:45:15;9.45;;;4.00;;
42294;SDS011;27947;47.556;18.718;2023-06-22T02:47:42;8.98;;;4.22;;
42294;SDS011;27947;47.556;18.718;2023-06-22T02:50:07;9.52;;;4.18;;
42294;SDS011;27947;47.556;18.718;2023-06-22T02:52:34;11.13;;;4.78;;
42294;SDS011;27947;47.556;18.718;2023-06-22T02:54:59;11.02;;;4.45;;
42294;SDS011;27947;47.556;18.718;2023-06-22T02:57:25;10.25;;;4.20;;
42294;SDS011;27947;47.556;18.718;2023-06-22T02:59:50;11.98;;;3.97;;
42294;SDS011;27947;47.556;18.718;2023-06-22T03:02:15;11.32;;;4.20;;
42294;SDS011;27947;47.556;18.718;2023-06-22T03:04:41;12.02;;;4.65;;
42294;SDS011;27947;47.556;18.718;2023-06-22T03:07:08;10.80;;;4.43;;
42294;SDS011;27947;47.556;18.718;2023-06-22T03:09:33;11.25;;;4.30;;
42294;SDS011;27947;47.556;18.718;2023-06-22T03:11:59;13.15;;;4.65;;
42294;SDS011;27947;47.556;18.718;2023-06-22T03:14:30;8.95;;;4.05;;
42294;SDS011;27947;47.556;18.718;2023-06-22T03:16:55;10.13;;;4.22;;
42294;SDS011;27947;47.556;18.718;2023-06-22T03:19:27;6.35;;;3.80;;
42294;SDS011;27947;47.556;18.718;2023-06-22T03:21:53;14.50;;;4.55;;
42294;SDS011;27947;47.556;18.718;2023-06-22T03:24:18;12.95;;;3.83;;
42294;SDS011;27947;47.556;18.718;2023-06-22T03:26:44;11.63;;;4.30;;
42294;SDS011;27947;47.556;18.718;2023-06-22T03:29:11;10.90;;;4.40;;
42294;SDS011;27947;47.556;18.718;2023-06-22T03:31:37;12.10;;;4.30;;
42294;SDS011;27947;47.556;18.718;2023-06-22T03:34:04;8.55;;;4.43;;
42294;SDS011;27947;47.556;18.718;2023-06-22T03:36:29;14.52;;;4.38;;
42294;SDS011;27947;47.556;18.718;2023-06-22T03:38:55;12.73;;;4.10;;
42294;SDS011;27947;47.556;18.718;2023-06-22T03:41:20;11.73;;;4.15;;
42294;SDS011;27947;47.556;18.718;2023-06-22T03:43:47;11.13;;;4.60;;
42294;SDS011;27947;47.556;18.718;2023-06-22T03:46:14;12.50;;;4.63;;
42294;SDS011;27947;47.556;18.718;2023-06-22T03:48:39;12.52;;;4.10;;
42294;SDS011;27947;47.556;18.718;2023-06-22T03:51:05;8.63;;;4.38;;
42294;SDS011;27947;47.556;18.718;2023-06-22T03:53:31;11.77;;;5.38;;
42294;SDS011;27947;47.556;18.718;2023-06-22T03:55:56;10.38;;;4.25;;
42294;SDS011;27947;47.556;18.718;2023-06-22T03:58:22;13.07;;;4.72;;
42294;SDS011;27947;47.556;18.718;2023-06-22T04:00:47;12.05;;;4.70;;
42294;SDS011;27947;47.556;18.718;2023-06-22T04:03:13;11.13;;;4.85;;
42294;SDS011;27947;47.556;18.718;2023-06-22T04:05:39;11.48;;;5.05;;
42294;SDS011;27947;47.556;18.718;2023-06-22T04:08:05;11.77;;;5.05;;
42294;SDS011;27947;47.556;18.718;2023-06-22T04:10:30;10.18;;;4.45;;
42294;SDS011;27947;47.556;18.718;2023-06-22T04:12:55;10.50;;;5.13;;
42294;SDS011;27947;47.556;18.718;2023-06-22T04:15:21;11.52;;;5.35;;
42294;SDS011;27947;47.556;18.718;2023-06-22T04:17:46;10.43;;;5.10;;
42294;SDS011;27947;47.556;18.718;2023-06-22T04:20:12;11.82;;;4.85;;
42294;SDS011;27947;47.556;18.718;2023-06-22T04:22:37;14.98;;;4.75;;
42294;SDS011;27947;47.556;18.718;2023-06-22T04:25:03;10.55;;;4.95;;
42294;SDS011;27947;47.556;18.718;2023-06-22T04:27:28;11.25;;;4.72;;
42294;SDS011;27947;47.556;18.718;2023-06-22T04:29:53;11.77;;;5.15;;
42294;SDS011;27947;47.556;18.718;2023-06-22T04:32:19;14.68;;;5.72;;
42294;SDS011;27947;47.556;18.718;2023-06-22T04:34:44;16.98;;;5.22;;
42294;SDS011;27947;47.556;18.718;2023-06-22T04:37:09;16.92;;;5.45;;
42294;SDS011;27947;47.556;18.718;2023-06-22T04:39:41;11.52;;;5.00;;
42294;SDS011;27947;47.556;18.718;2023-06-22T04:42:07;12.43;;;5.25;;
42294;SDS011;27947;47.556;18.718;2023-06-22T04:44:32;10.43;;;4.53;;
42294;SDS011;27947;47.556;18.718;2023-06-22T04:46:58;18.15;;;5.78;;
42294;SDS011;27947;47.556;18.718;2023-06-22T04:49:28;19.73;;;5.90;;
42294;SDS011;27947;47.556;18.718;2023-06-22T04:51:58;17.17;;;6.03;;
42294;SDS011;27947;47.556;18.718;2023-06-22T04:54:23;16.10;;;5.22;;
42294;SDS011;27947;47.556;18.718;2023-06-22T04:56:49;18.02;;;4.75;;
42294;SDS011;27947;47.556;18.718;2023-06-22T04:59:21;13.80;;;5.35;;
42294;SDS011;27947;47.556;18.718;2023-06-22T05:01:47;18.23;;;4.85;;
42294;SDS011;27947;47.556;18.718;2023-06-22T05:04:12;13.88;;;4.93;;
42294;SDS011;27947;47.556;18.718;2023-06-22T05:06:38;12.48;;;4.75;;
42294;SDS011;27947;47.556;18.718;2023-06-22T05:09:03;12.77;;;4.82;;
42294;SDS011;27947;47.556;18.718;2023-06-22T05:11:30;13.13;;;4.38;;
42294;SDS011;27947;47.556;18.718;2023-06-22T05:13:55;15.88;;;5.25;;
42294;SDS011;27947;47.556;18.718;2023-06-22T05:16:21;14.77;;;4.80;;
42294;SDS011;27947;47.556;18.718;2023-06-22T05:18:50;12.38;;;5.10;;
42294;SDS011;27947;47.556;18.718;2023-06-22T05:21:16;12.02;;;4.90;;
42294;SDS011;27947;47.556;18.718;2023-06-22T05:23:41;10.63;;;4.55;;
42294;SDS011;27947;47.556;18.718;2023-06-22T05:26:06;14.55;;;5.30;;
42294;SDS011;27947;47.556;18.718;2023-06-22T05:28:34;12.52;;;4.82;;
42294;SDS011;27947;47.556;18.718;2023-06-22T05:30:59;10.65;;;4.95;;
42294;SDS011;27947;47.556;18.718;2023-06-22T05:33:25;15.90;;;4.75;;
42294;SDS011;27947;47.556;18.718;2023-06-22T05:35:50;11.98;;;4.68;;
42294;SDS011;27947;47.556;18.718;2023-06-22T05:38:15;16.05;;;4.68;;
42294;SDS011;27947;47.556;18.718;2023-06-22T05:40:41;15.05;;;4.75;;
42294;SDS011;27947;47.556;18.718;2023-06-22T05:43:06;10.65;;;4.93;;
42294;SDS011;27947;47.556;18.718;2023-06-22T05:45:32;12.05;;;4.85;;
42294;SDS011;27947;47.556;18.718;2023-06-22T05:47:57;11.88;;;4.60;;
42294;SDS011;27947;47.556;18.718;2023-06-22T05:50:22;15.40;;;5.25;;
42294;SDS011;27947;47.556;18.718;2023-06-22T05:52:47;9.48;;;4.22;;
42294;SDS011;27947;47.556;18.718;2023-06-22T05:55:13;10.63;;;4.45;;
42294;SDS011;27947;47.556;18.718;2023-06-22T05:57:38;7.97;;;4.07;;
42294;SDS011;27947;47.556;18.718;2023-06-22T06:00:04;12.25;;;4.25;;
42294;SDS011;27947;47.556;18.718;2023-06-22T06:02:33;11.20;;;4.35;;
42294;SDS011;27947;47.556;18.718;2023-06-22T06:04:58;14.40;;;6.40;;
42294;SDS011;27947;47.556;18.718;2023-06-22T06:07:24;17.77;;;6.68;;
42294;SDS011;27947;47.556;18.718;2023-06-22T06:09:49;9.85;;;5.10;;
42294;SDS011;27947;47.556;18.718;2023-06-22T06:12:14;14.35;;;5.07;;
42294;SDS011;27947;47.556;18.718;2023-06-22T06:14:40;14.52;;;5.82;;
42294;SDS011;27947;47.556;18.718;2023-06-22T06:17:05;16.33;;;6.00;;
42294;SDS011;27947;47.556;18.718;2023-06-22T06:19:30;15.57;;;6.18;;
42294;SDS011;27947;47.556;18.718;2023-06-22T06:21:56;12.15;;;5.45;;
42294;SDS011;27947;47.556;18.718;2023-06-22T06:24:21;9.68;;;5.05;;
42294;SDS011;27947;47.556;18.718;2023-06-22T06:26:47;8.63;;;4.40;;
42294;SDS011;27947;47.556;18.718;2023-06-22T06:29:12;10.05;;;4.22;;
42294;SDS011;27947;47.556;18.718;2023-06-22T06:31:38;15.88;;;5.07;;
42294;SDS011;27947;47.556;18.718;2023-06-22T06:34:03;10.27;;;4.05;;
42294;SDS011;27947;47.556;18.718;2023-06-22T06:36:28;10.30;;;3.95;;
42294;SDS011;27947;47.556;18.718;2023-06-22T06:38:54;14.45;;;3.47;;
42294;SDS011;27947;47.556;18.718;2023-06-22T06:41:19;9.70;;;3.20;;
42294;SDS011;27947;47.556;18.718;2023-06-22T06:43:44;10.77;;;4.10;;
42294;SDS011;27947;47.556;18.718;2023-06-22T06:46:10;11.88;;;5.00;;
42294;SDS011;27947;47.556;18.718;2023-06-22T06:48:35;11.30;;;5.32;;
42294;SDS011;27947;47.556;18.718;2023-06-22T06:51:00;8.23;;;5.20;;
42294;SDS011;27947;47.556;18.718;2023-06-22T06:53:26;16.42;;;5.95;;
42294;SDS011;27947;47.556;18.718;2023-06-22T06:55:52;11.82;;;5.43;;
42294;SDS011;27947;47.556;18.718;2023-06-22T06:58:17;10.82;;;4.78;;
42294;SDS011;27947;47.556;18.718;2023-06-22T07:00:42;13.32;;;6.55;;
42294;SDS011;27947;47.556;18.718;2023-06-22T07:03:08;9.32;;;5.28;;
42294;SDS011;27947;47.556;18.718;2023-06-22T07:05:34;9.05;;;4.25;;
42294;SDS011;27947;47.556;18.718;2023-06-22T07:08:00;12.15;;;5.00;;
42294;SDS011;27947;47.556;18.718;2023-06-22T07:10:25;10.25;;;4.53;;
42294;SDS011;27947;47.556;18.718;2023-06-22T07:12:51;11.57;;;4.60;;
42294;SDS011;27947;47.556;18.718;2023-06-22T07:15:16;13.35;;;4.45;;
42294;SDS011;27947;47.556;18.718;2023-06-22T07:17:41;7.53;;;4.03;;
42294;SDS011;27947;47.556;18.718;2023-06-22T07:20:07;12.63;;;4.05;;
42294;SDS011;27947;47.556;18.718;2023-06-22T07:22:41;13.68;;;4.30;;
42294;SDS011;27947;47.556;18.718;2023-06-22T07:25:07;7.53;;;3.97;;
42294;SDS011;27947;47.556;18.718;2023-06-22T07:27:39;12.55;;;5.10;;
42294;SDS011;27947;47.556;18.718;2023-06-22T07:30:08;12.07;;;4.95;;
42294;SDS011;27947;47.556;18.718;2023-06-22T07:32:34;13.13;;;4.18;;
42294;SDS011;27947;47.556;18.718;2023-06-22T07:34:59;13.90;;;5.05;;
42294;SDS011;27947;47.556;18.718;2023-06-22T07:37:25;8.60;;;3.80;;
42294;SDS011;27947;47.556;18.718;2023-06-22T07:39:52;9.98;;;4.13;;
42294;SDS011;27947;47.556;18.718;2023-06-22T07:42:19;9.55;;;4.40;;
42294;SDS011;27947;47.556;18.718;2023-06-22T07:44:44;10.45;;;4.25;;
42294;SDS011;27947;47.556;18.718;2023-06-22T07:47:09;11.70;;;4.05;;
42294;SDS011;27947;47.556;18.718;2023-06-22T07:49:35;7.93;;;3.75;;
42294;SDS011;27947;47.556;18.718;2023-06-22T07:52:00;11.57;;;4.22;;
42294;SDS011;27947;47.556;18.718;2023-06-22T07:54:26;11.48;;;4.47;;
42294;SDS011;27947;47.556;18.718;2023-06-22T07:56:52;13.85;;;4.22;;
42294;SDS011;27947;47.556;18.718;2023-06-22T07:59:17;7.60;;;4.28;;
42294;SDS011;27947;47.556;18.718;2023-06-22T08:01:43;13.38;;;4.15;;
42294;SDS011;27947;47.556;18.718;2023-06-22T08:04:08;8.25;;;4.25;;
42294;SDS011;27947;47.556;18.718;2023-06-22T08:06:33;9.93;;;4.72;;
42294;SDS011;27947;47.556;18.718;2023-06-22T08:08:59;13.38;;;4.82;;
42294;SDS011;27947;47.556;18.718;2023-06-22T08:11:24;12.25;;;3.90;;
42294;SDS011;27947;47.556;18.718;2023-06-22T08:13:50;9.40;;;4.30;;
42294;SDS011;27947;47.556;18.718;2023-06-22T08:16:16;13.00;;;4.40;;
42294;SDS011;27947;47.556;18.718;2023-06-22T08:18:41;12.40;;;4.68;;
42294;SDS011;27947;47.556;18.718;2023-06-22T08:21:06;10.20;;;4.13;;
42294;SDS011;27947;47.556;18.718;2023-06-22T08:23:32;10.18;;;4.05;;
42294;SDS011;27947;47.556;18.718;2023-06-22T08:25:57;10.63;;;3.80;;
42294;SDS011;27947;47.556;18.718;2023-06-22T08:28:23;9.75;;;4.32;;
42294;SDS011;27947;47.556;18.718;2023-06-22T08:30:48;11.90;;;4.60;;
42294;SDS011;27947;47.556;18.718;2023-06-22T08:33:13;12.60;;;4.20;;
42294;SDS011;27947;47.556;18.718;2023-06-22T08:35:39;11.50;;;4.88;;
42294;SDS011;27947;47.556;18.718;2023-06-22T08:38:04;10.88;;;3.70;;
42294;SDS011;27947;47.556;18.718;2023-06-22T08:40:30;9.20;;;3.55;;
42294;SDS011;27947;47.556;18.718;2023-06-22T08:42:55;9.48;;;3.95;;
42294;SDS011;27947;47.556;18.718;2023-06-22T08:45:20;17.60;;;5.03;;
42294;SDS011;27947;47.556;18.718;2023-06-22T08:47:46;8.93;;;4.85;;
42294;SDS011;27947;47.556;18.718;2023-06-22T08:50:11;12.20;;;4.65;;
42294;SDS011;27947;47.556;18.718;2023-06-22T08:52:37;9.50;;;4.63;;
42294;SDS011;27947;47.556;18.718;2023-06-22T08:55:04;13.52;;;4.90;;
42294;SDS011;27947;47.556;18.718;2023-06-22T08:57:30;9.82;;;4.25;;
42294;SDS011;27947;47.556;18.718;2023-06-22T08:59:58;10.90;;;4.95;;
42294;SDS011;27947;47.556;18.718;2023-06-22T09:02:26;9.52;;;5.47;;
42294;SDS011;27947;47.556;18.718;2023-06-22T09:07:24;9.80;;;4.93;;
42294;SDS011;27947;47.556;18.718;2023-06-22T09:09:50;11.00;;;5.13;;
42294;SDS011;27947;47.556;18.718;2023-06-22T09:12:15;9.57;;;4.95;;
42294;SDS011;27947;47.556;18.718;2023-06-22T09:14:41;11.65;;;5.60;;
42294;SDS011;27947;47.556;18.718;2023-06-22T09:17:06;7.93;;;5.65;;
42294;SDS011;27947;47.556;18.718;2023-06-22T09:19:32;9.70;;;6.10;;
42294;SDS011;27947;47.556;18.718;2023-06-22T09:21:57;9.48;;;5.47;;
42294;SDS011;27947;47.556;18.718;2023-06-22T09:24:23;9.45;;;5.32;;
42294;SDS011;27947;47.556;18.718;2023-06-22T09:26:48;9.50;;;6.07;;
42294;SDS011;27947;47.556;18.718;2023-06-22T09:29:14;9.90;;;5.85;;
42294;SDS011;27947;47.556;18.718;2023-06-22T09:31:39;10.18;;;6.07;;
42294;SDS011;27947;47.556;18.718;2023-06-22T09:34:05;7.32;;;5.60;;
42294;SDS011;27947;47.556;18.718;2023-06-22T09:36:30;8.35;;;5.72;;
42294;SDS011;27947;47.556;18.718;2023-06-22T09:38:56;12.13;;;6.28;;
42294;SDS011;27947;47.556;18.718;2023-06-22T09:41:23;9.48;;;6.45;;
42294;SDS011;27947;47.556;18.718;2023-06-22T09:43:49;11.00;;;6.63;;
42294;SDS011;27947;47.556;18.718;2023-06-22T09:46:15;9.63;;;6.75;;
42294;SDS011;27947;47.556;18.718;2023-06-22T09:48:40;13.75;;;6.07;;
42294;SDS011;27947;47.556;18.718;2023-06-22T09:51:05;10.65;;;6.70;;
42294;SDS011;27947;47.556;18.718;2023-06-22T09:53:31;10.52;;;6.30;;
42294;SDS011;27947;47.556;18.718;2023-06-22T09:55:56;12.43;;;6.90;;
42294;SDS011;27947;47.556;18.718;2023-06-22T09:58:22;14.55;;;7.10;;
42294;SDS011;27947;47.556;18.718;2023-06-22T10:00:47;9.70;;;6.30;;
42294;SDS011;27947;47.556;18.718;2023-06-22T10:03:13;12.93;;;6.57;;
42294;SDS011;27947;47.556;18.718;2023-06-22T10:05:38;13.98;;;7.03;;
42294;SDS011;27947;47.556;18.718;2023-06-22T10:08:03;12.30;;;6.15;;
42294;SDS011;27947;47.556;18.718;2023-06-22T10:10:29;11.15;;;6.88;;
42294;SDS011;27947;47.556;18.718;2023-06-22T10:12:57;11.55;;;6.68;;
42294;SDS011;27947;47.556;18.718;2023-06-22T10:15:27;17.90;;;7.43;;
42294;SDS011;27947;47.556;18.718;2023-06-22T10:17:53;11.38;;;6.85;;
42294;SDS011;27947;47.556;18.718;2023-06-22T10:20:18;9.60;;;7.05;;
42294;SDS011;27947;47.556;18.718;2023-06-22T10:22:44;10.10;;;6.60;;
42294;SDS011;27947;47.556;18.718;2023-06-22T10:25:13;10.10;;;7.13;;
42294;SDS011;27947;47.556;18.718;2023-06-22T10:27:38;11.32;;;7.32;;
42294;SDS011;27947;47.556;18.718;2023-06-22T10:30:10;11.85;;;7.70;;
42294;SDS011;27947;47.556;18.718;2023-06-22T10:32:38;11.60;;;7.47;;
42294;SDS011;27947;47.556;18.718;2023-06-22T10:35:03;12.00;;;7.68;;
42294;SDS011;27947;47.556;18.718;2023-06-22T10:37:29;12.50;;;7.22;;
42294;SDS011;27947;47.556;18.718;2023-06-22T10:39:54;11.43;;;7.05;;
42294;SDS011;27947;47.556;18.718;2023-06-22T10:42:20;10.73;;;7.60;;
42294;SDS011;27947;47.556;18.718;2023-06-22T10:44:45;12.68;;;7.38;;
42294;SDS011;27947;47.556;18.718;2023-06-22T10:47:11;12.80;;;6.82;;
42294;SDS011;27947;47.556;18.718;2023-06-22T10:49:40;10.68;;;6.75;;
42294;SDS011;27947;47.556;18.718;2023-06-22T10:52:06;12.73;;;7.13;;
42294;SDS011;27947;47.556;18.718;2023-06-22T10:54:32;12.30;;;6.80;;
42294;SDS011;27947;47.556;18.718;2023-06-22T10:56:58;12.57;;;7.18;;
42294;SDS011;27947;47.556;18.718;2023-06-22T10:59:24;12.55;;;7.72;;
42294;SDS011;27947;47.556;18.718;2023-06-22T11:01:51;12.27;;;6.32;;
42294;SDS011;27947;47.556;18.718;2023-06-22T11:04:16;11.40;;;7.00;;
42294;SDS011;27947;47.556;18.718;2023-06-22T11:06:42;14.55;;;7.00;;
42294;SDS011;27947;47.556;18.718;2023-06-22T11:09:08;14.40;;;7.45;;
42294;SDS011;27947;47.556;18.718;2023-06-22T11:11:33;9.70;;;6.80;;
42294;SDS011;27947;47.556;18.718;2023-06-22T11:13:58;12.43;;;7.65;;
42294;SDS011;27947;47.556;18.718;2023-06-22T11:16:24;14.63;;;6.15;;
42294;SDS011;27947;47.556;18.718;2023-06-22T11:18:49;11.02;;;7.28;;
42294;SDS011;27947;47.556;18.718;2023-06-22T11:21:14;11.90;;;7.32;;
42294;SDS011;27947;47.556;18.718;2023-06-22T11:23:41;8.50;;;6.28;;
42294;SDS011;27947;47.556;18.718;2023-06-22T11:26:07;10.55;;;6.20;;
42294;SDS011;27947;47.556;18.718;2023-06-22T11:28:32;10.93;;;5.97;;
42294;SDS011;27947;47.556;18.718;2023-06-22T11:30:57;16.65;;;6.78;;
42294;SDS011;27947;47.556;18.718;2023-06-22T11:33:23;9.57;;;6.63;;
42294;SDS011;27947;47.556;18.718;2023-06-22T11:35:48;10.50;;;5.88;;
42294;SDS011;27947;47.556;18.718;2023-06-22T11:38:13;12.07;;;6.25;;
42294;SDS011;27947;47.556;18.718;2023-06-22T11:40:39;9.70;;;6.78;;
42294;SDS011;27947;47.556;18.718;2023-06-22T11:43:04;9.80;;;6.80;;
42294;SDS011;27947;47.556;18.718;2023-06-22T11:45:29;12.52;;;6.55;;
42294;SDS011;27947;47.556;18.718;2023-06-22T11:47:55;13.00;;;6.20;;
42294;SDS011;27947;47.556;18.718;2023-06-22T11:50:20;11.80;;;6.38;;
42294;SDS011;27947;47.556;18.718;2023-06-22T11:52:45;11.20;;;6.03;;
42294;SDS011;27947;47.556;18.718;2023-06-22T11:55:11;14.15;;;6.10;;
42294;SDS011;27947;47.556;18.718;2023-06-22T11:57:36;9.77;;;6.40;;
42294;SDS011;27947;47.556;18.718;2023-06-22T12:00:05;10.60;;;6.20;;
42294;SDS011;27947;47.556;18.718;2023-06-22T12:02:41;11.50;;;5.50;;
42294;SDS011;27947;47.556;18.718;2023-06-22T12:05:06;14.05;;;6.10;;
42294;SDS011;27947;47.556;18.718;2023-06-22T12:07:33;12.63;;;6.00;;
42294;SDS011;27947;47.556;18.718;2023-06-22T12:09:58;13.75;;;6.72;;
42294;SDS011;27947;47.556;18.718;2023-06-22T12:12:24;14.18;;;6.95;;
42294;SDS011;27947;47.556;18.718;2023-06-22T12:14:49;10.95;;;6.75;;
42294;SDS011;27947;47.556;18.718;2023-06-22T12:17:14;9.60;;;5.90;;
42294;SDS011;27947;47.556;18.718;2023-06-22T12:19:40;7.97;;;5.60;;
42294;SDS011;27947;47.556;18.718;2023-06-22T12:22:05;11.70;;;6.20;;
42294;SDS011;27947;47.556;18.718;2023-06-22T12:24:30;12.73;;;6.18;;
42294;SDS011;27947;47.556;18.718;2023-06-22T12:26:56;10.02;;;6.47;;
42294;SDS011;27947;47.556;18.718;2023-06-22T12:29:21;14.30;;;5.70;;
42294;SDS011;27947;47.556;18.718;2023-06-22T12:31:46;8.43;;;5.85;;
42294;SDS011;27947;47.556;18.718;2023-06-22T12:34:12;9.10;;;6.15;;
42294;SDS011;27947;47.556;18.718;2023-06-22T12:36:37;10.65;;;5.47;;
42294;SDS011;27947;47.556;18.718;2023-06-22T12:39:02;12.27;;;6.13;;
42294;SDS011;27947;47.556;18.718;2023-06-22T12:41:28;11.98;;;6.38;;
42294;SDS011;27947;47.556;18.718;2023-06-22T12:43:53;13.07;;;5.72;;
42294;SDS011;27947;47.556;18.718;2023-06-22T12:46:18;12.48;;;5.93;;
42294;SDS011;27947;47.556;18.718;2023-06-22T12:48:44;13.25;;;6.30;;
42294;SDS011;27947;47.556;18.718;2023-06-22T12:51:09;11.75;;;6.38;;
42294;SDS011;27947;47.556;18.718;2023-06-22T12:53:35;13.43;;;5.78;;
42294;SDS011;27947;47.556;18.718;2023-06-22T12:56:00;10.52;;;6.57;;
42294;SDS011;27947;47.556;18.718;2023-06-22T12:58:25;12.80;;;6.18;;
42294;SDS011;27947;47.556;18.718;2023-06-22T13:00:51;9.18;;;6.15;;
42294;SDS011;27947;47.556;18.718;2023-06-22T13:03:16;9.45;;;5.60;;
42294;SDS011;27947;47.556;18.718;2023-06-22T13:05:41;8.95;;;6.28;;
42294;SDS011;27947;47.556;18.718;2023-06-22T13:08:07;9.43;;;5.60;;
42294;SDS011;27947;47.556;18.718;2023-06-22T13:10:33;8.88;;;5.53;;
42294;SDS011;27947;47.556;18.718;2023-06-22T13:12:58;9.30;;;5.47;;
42294;SDS011;27947;47.556;18.718;2023-06-22T13:15:28;10.77;;;5.88;;
42294;SDS011;27947;47.556;18.718;2023-06-22T13:17:54;10.73;;;6.28;;
42294;SDS011;27947;47.556;18.718;2023-06-22T13:20:19;11.27;;;6.57;;
42294;SDS011;27947;47.556;18.718;2023-06-22T13:22:45;12.30;;;6.22;;
42294;SDS011;27947;47.556;18.718;2023-06-22T13:25:10;9.70;;;6.72;;
42294;SDS011;27947;47.556;18.718;2023-06-22T13:27:38;12.57;;;6.70;;
42294;SDS011;27947;47.556;18.718;2023-06-22T13:30:03;9.98;;;6.55;;
42294;SDS011;27947;47.556;18.718;2023-06-22T13:32:29;9.90;;;6.80;;
42294;SDS011;27947;47.556;18.718;2023-06-22T13:34:54;14.65;;;6.88;;
42294;SDS011;27947;47.556;18.718;2023-06-22T13:37:20;16.67;;;7.57;;
42294;SDS011;27947;47.556;18.718;2023-06-22T13:39:45;14.18;;;7.70;;
42294;SDS011;27947;47.556;18.718;2023-06-22T13:42:10;13.73;;;7.05;;
42294;SDS011;27947;47.556;18.718;2023-06-22T13:44:36;16.73;;;7.72;;
42294;SDS011;27947;47.556;18.718;2023-06-22T13:47:01;16.83;;;8.57;;
42294;SDS011;27947;47.556;18.718;2023-06-22T13:49:26;17.25;;;9.45;;
42294;SDS011;27947;47.556;18.718;2023-06-22T13:51:52;15.10;;;8.65;;
42294;SDS011;27947;47.556;18.718;2023-06-22T13:54:17;15.55;;;8.52;;
42294;SDS011;27947;47.556;18.718;2023-06-22T13:56:42;10.27;;;7.60;;
42294;SDS011;27947;47.556;18.718;2023-06-22T13:59:08;12.95;;;8.32;;
42294;SDS011;27947;47.556;18.718;2023-06-22T14:01:35;15.93;;;7.80;;
42294;SDS011;27947;47.556;18.718;2023-06-22T14:04:00;13.02;;;7.68;;
42294;SDS011;27947;47.556;18.718;2023-06-22T14:06:27;15.90;;;7.75;;
42294;SDS011;27947;47.556;18.718;2023-06-22T14:08:52;11.38;;;7.57;;
42294;SDS011;27947;47.556;18.718;2023-06-22T14:11:18;13.95;;;7.88;;
42294;SDS011;27947;47.556;18.718;2023-06-22T14:13:43;11.23;;;8.25;;
42294;SDS011;27947;47.556;18.718;2023-06-22T14:16:08;15.98;;;8.02;;
42294;SDS011;27947;47.556;18.718;2023-06-22T14:18:34;13.50;;;8.00;;
42294;SDS011;27947;47.556;18.718;2023-06-22T14:20:59;17.58;;;8.80;;
42294;SDS011;27947;47.556;18.718;2023-06-22T14:23:24;12.00;;;8.00;;
42294;SDS011;27947;47.556;18.718;2023-06-22T14:25:50;13.60;;;8.65;;